sensor_id;sensor_type;location;lat;lon;timestamp;P1;durP1;ratioP1;P2;durP2;ratioP2
7154;SDS011;3619;53.784;10.440;2023-04-29T00:01:33;1.00;;;1.00;;
7154;SDS011;3619;53.784;10.440;2023-04-29T00:04:01;0.90;;;0.90;;
7154;SDS011;3619;53.784;10.440;2023-04-29T00:06:27;1.30;;;1.30;;
7154;SDS011;3619;53.784;10.440;2023-04-29T00:08:56;0.80;;;0.80;;
7154;SDS011;3619;53.784;10.440;2023-04-29T00:11:22;0.90;;;0.90;;
7154;SDS011;3619;53.784;10.440;2023-04-29T00:13:49;0.90;;;0.90;;
7154;SDS011;3619;53.784;10.440;2023-04-29T00:16:16;0.90;;;0.90;;
7154;SDS011;3619;53.784;10.440;2023-04-29T00:18:42;0.80;;;0.80;;
7154;SDS011;3619;53.784;10.440;2023-04-29T00:21:09;0.90;;;0.90;;
7154;SDS011;3619;53.784;10.440;2023-04-29T00:23:36;0.90;;;0.90;;
7154;SDS011;3619;53.784;10.440;2023-04-29T00:26:04;0.90;;;0.90;;
7154;SDS011;3619;53.784;10.440;2023-04-29T00:28:31;0.83;;;0.83;;
7154;SDS011;3619;53.784;10.440;2023-04-29T00:30:58;1.47;;;1.47;;
7154;SDS011;3619;53.784;10.440;2023-04-29T00:33:24;0.80;;;0.80;;
7154;SDS011;3619;53.784;10.440;2023-04-29T00:35:51;0.80;;;0.80;;
7154;SDS011;3619;53.784;10.440;2023-04-29T00:38:18;0.80;;;0.80;;
7154;SDS011;3619;53.784;10.440;2023-04-29T00:40:45;3.00;;;2.90;;
7154;SDS011;3619;53.784;10.440;2023-04-29T00:43:13;0.93;;;0.93;;
7154;SDS011;3619;53.784;10.440;2023-04-29T00:45:40;0.80;;;0.80;;
7154;SDS011;3619;53.784;10.440;2023-04-29T00:48:07;0.80;;;0.80;;
7154;SDS011;3619;53.784;10.440;2023-04-29T00:50:34;0.80;;;0.80;;
7154;SDS011;3619;53.784;10.440;2023-04-29T00:53:01;0.60;;;0.60;;
7154;SDS011;3619;53.784;10.440;2023-04-29T00:55:28;0.60;;;0.60;;
7154;SDS011;3619;53.784;10.440;2023-04-29T00:57:56;0.70;;;0.70;;
7154;SDS011;3619;53.784;10.440;2023-04-29T01:00:24;1.97;;;1.83;;
7154;SDS011;3619;53.784;10.440;2023-04-29T01:02:52;0.80;;;0.80;;
7154;SDS011;3619;53.784;10.440;2023-04-29T01:05:20;0.80;;;0.80;;
7154;SDS011;3619;53.784;10.440;2023-04-29T01:07:49;0.70;;;0.70;;
7154;SDS011;3619;53.784;10.440;2023-04-29T01:10:25;0.73;;;0.73;;
7154;SDS011;3619;53.784;10.440;2023-04-29T01:12:57;0.90;;;0.90;;
7154;SDS011;3619;53.784;10.440;2023-04-29T01:15:33;1.00;;;1.00;;
7154;SDS011;3619;53.784;10.440;2023-04-29T01:18:08;0.70;;;0.70;;
7154;SDS011;3619;53.784;10.440;2023-04-29T01:20:37;0.90;;;0.90;;
7154;SDS011;3619;53.784;10.440;2023-04-29T01:23:05;0.90;;;0.90;;
7154;SDS011;3619;53.784;10.440;2023-04-29T01:25:33;0.90;;;0.90;;
7154;SDS011;3619;53.784;10.440;2023-04-29T01:28:03;0.97;;;0.97;;
7154;SDS011;3619;53.784;10.440;2023-04-29T01:30:37;1.37;;;1.37;;
7154;SDS011;3619;53.784;10.440;2023-04-29T01:33:13;0.77;;;0.77;;
7154;SDS011;3619;53.784;10.440;2023-04-29T01:35:50;0.70;;;0.70;;
7154;SDS011;3619;53.784;10.440;2023-04-29T01:38:29;0.80;;;0.80;;
7154;SDS011;3619;53.784;10.440;2023-04-29T01:41:05;0.83;;;0.83;;
7154;SDS011;3619;53.784;10.440;2023-04-29T01:43:36;0.70;;;0.70;;
7154;SDS011;3619;53.784;10.440;2023-04-29T01:48:39;0.90;;;0.90;;
7154;SDS011;3619;53.784;10.440;2023-04-29T01:51:07;1.33;;;1.27;;
7154;SDS011;3619;53.784;10.440;2023-04-29T01:53:35;0.80;;;0.80;;
7154;SDS011;3619;53.784;10.440;2023-04-29T01:56:06;0.70;;;0.70;;
7154;SDS011;3619;53.784;10.440;2023-04-29T01:58:33;0.80;;;0.80;;
7154;SDS011;3619;53.784;10.440;2023-04-29T02:00:59;1.10;;;1.10;;
7154;SDS011;3619;53.784;10.440;2023-04-29T02:03:26;0.80;;;0.80;;
7154;SDS011;3619;53.784;10.440;2023-04-29T02:05:53;0.80;;;0.80;;
7154;SDS011;3619;53.784;10.440;2023-04-29T02:08:20;0.80;;;0.80;;
7154;SDS011;3619;53.784;10.440;2023-04-29T02:10:56;0.90;;;0.90;;
7154;SDS011;3619;53.784;10.440;2023-04-29T02:13:25;0.80;;;0.80;;
7154;SDS011;3619;53.784;10.440;2023-04-29T02:15:52;0.90;;;0.90;;
7154;SDS011;3619;53.784;10.440;2023-04-29T02:18:18;0.80;;;0.80;;
7154;SDS011;3619;53.784;10.440;2023-04-29T02:20:45;0.70;;;0.70;;
7154;SDS011;3619;53.784;10.440;2023-04-29T02:23:13;0.70;;;0.70;;
7154;SDS011;3619;53.784;10.440;2023-04-29T02:25:41;1.00;;;1.00;;
7154;SDS011;3619;53.784;10.440;2023-04-29T02:28:07;0.87;;;0.87;;
7154;SDS011;3619;53.784;10.440;2023-04-29T02:30:36;0.80;;;0.80;;
7154;SDS011;3619;53.784;10.440;2023-04-29T02:33:02;0.90;;;0.90;;
7154;SDS011;3619;53.784;10.440;2023-04-29T02:35:29;0.90;;;0.90;;
7154;SDS011;3619;53.784;10.440;2023-04-29T02:37:56;0.60;;;0.60;;
7154;SDS011;3619;53.784;10.440;2023-04-29T02:40:22;1.00;;;1.00;;
7154;SDS011;3619;53.784;10.440;2023-04-29T02:42:51;1.00;;;1.00;;
7154;SDS011;3619;53.784;10.440;2023-04-29T02:45:17;0.80;;;0.80;;
7154;SDS011;3619;53.784;10.440;2023-04-29T02:47:45;0.80;;;0.80;;
7154;SDS011;3619;53.784;10.440;2023-04-29T02:50:12;0.70;;;0.70;;
7154;SDS011;3619;53.784;10.440;2023-04-29T02:52:39;0.80;;;0.80;;
7154;SDS011;3619;53.784;10.440;2023-04-29T02:55:06;0.80;;;0.80;;
7154;SDS011;3619;53.784;10.440;2023-04-29T02:57:34;0.70;;;0.70;;
7154;SDS011;3619;53.784;10.440;2023-04-29T03:00:00;0.70;;;0.70;;
7154;SDS011;3619;53.784;10.440;2023-04-29T03:02:28;0.90;;;0.90;;
7154;SDS011;3619;53.784;10.440;2023-04-29T03:04:56;0.83;;;0.83;;
7154;SDS011;3619;53.784;10.440;2023-04-29T03:07:23;0.93;;;0.93;;
7154;SDS011;3619;53.784;10.440;2023-04-29T03:09:50;0.90;;;0.90;;
7154;SDS011;3619;53.784;10.440;2023-04-29T03:12:16;0.80;;;0.80;;
7154;SDS011;3619;53.784;10.440;2023-04-29T03:14:43;0.80;;;0.80;;
7154;SDS011;3619;53.784;10.440;2023-04-29T03:17:10;0.83;;;0.83;;
7154;SDS011;3619;53.784;10.440;2023-04-29T03:19:37;1.03;;;1.03;;
7154;SDS011;3619;53.784;10.440;2023-04-29T03:22:05;0.70;;;0.70;;
7154;SDS011;3619;53.784;10.440;2023-04-29T03:24:34;1.47;;;1.47;;
7154;SDS011;3619;53.784;10.440;2023-04-29T03:27:01;1.00;;;1.00;;
7154;SDS011;3619;53.784;10.440;2023-04-29T03:29:28;0.90;;;0.90;;
7154;SDS011;3619;53.784;10.440;2023-04-29T03:31:55;1.00;;;1.00;;
7154;SDS011;3619;53.784;10.440;2023-04-29T03:34:22;0.90;;;0.90;;
7154;SDS011;3619;53.784;10.440;2023-04-29T03:36:49;0.90;;;0.90;;
7154;SDS011;3619;53.784;10.440;2023-04-29T03:39:17;0.87;;;0.87;;
7154;SDS011;3619;53.784;10.440;2023-04-29T03:41:45;0.80;;;0.80;;
7154;SDS011;3619;53.784;10.440;2023-04-29T03:44:12;0.70;;;0.70;;
7154;SDS011;3619;53.784;10.440;2023-04-29T03:46:39;0.80;;;0.80;;
7154;SDS011;3619;53.784;10.440;2023-04-29T03:49:05;0.80;;;0.80;;
7154;SDS011;3619;53.784;10.440;2023-04-29T03:51:32;0.80;;;0.80;;
7154;SDS011;3619;53.784;10.440;2023-04-29T03:53:59;0.80;;;0.80;;
7154;SDS011;3619;53.784;10.440;2023-04-29T03:56:27;0.80;;;0.80;;
7154;SDS011;3619;53.784;10.440;2023-04-29T03:58:54;0.80;;;0.80;;
7154;SDS011;3619;53.784;10.440;2023-04-29T04:01:21;0.67;;;0.67;;
7154;SDS011;3619;53.784;10.440;2023-04-29T04:03:47;0.60;;;0.60;;
7154;SDS011;3619;53.784;10.440;2023-04-29T04:06:14;0.70;;;0.70;;
7154;SDS011;3619;53.784;10.440;2023-04-29T04:08:41;0.67;;;0.67;;
7154;SDS011;3619;53.784;10.440;2023-04-29T04:11:08;0.60;;;0.60;;
7154;SDS011;3619;53.784;10.440;2023-04-29T04:13:36;0.80;;;0.80;;
7154;SDS011;3619;53.784;10.440;2023-04-29T04:16:03;0.70;;;0.70;;
7154;SDS011;3619;53.784;10.440;2023-04-29T04:18:30;0.80;;;0.80;;
7154;SDS011;3619;53.784;10.440;2023-04-29T04:20:57;0.70;;;0.70;;
7154;SDS011;3619;53.784;10.440;2023-04-29T04:23:23;0.67;;;0.67;;
7154;SDS011;3619;53.784;10.440;2023-04-29T04:25:50;0.70;;;0.70;;
7154;SDS011;3619;53.784;10.440;2023-04-29T04:28:17;0.70;;;0.70;;
7154;SDS011;3619;53.784;10.440;2023-04-29T04:30:46;0.60;;;0.60;;
7154;SDS011;3619;53.784;10.440;2023-04-29T04:33:12;0.67;;;0.67;;
7154;SDS011;3619;53.784;10.440;2023-04-29T04:35:40;0.70;;;0.70;;
7154;SDS011;3619;53.784;10.440;2023-04-29T04:38:06;0.70;;;0.70;;
7154;SDS011;3619;53.784;10.440;2023-04-29T04:40:35;0.60;;;0.60;;
7154;SDS011;3619;53.784;10.440;2023-04-29T04:43:02;0.70;;;0.70;;
7154;SDS011;3619;53.784;10.440;2023-04-29T04:45:28;1.03;;;1.03;;
7154;SDS011;3619;53.784;10.440;2023-04-29T04:47:56;0.77;;;0.77;;
7154;SDS011;3619;53.784;10.440;2023-04-29T04:50:23;0.70;;;0.70;;
7154;SDS011;3619;53.784;10.440;2023-04-29T04:52:53;0.80;;;0.80;;
7154;SDS011;3619;53.784;10.440;2023-04-29T04:55:20;0.70;;;0.70;;
7154;SDS011;3619;53.784;10.440;2023-04-29T04:57:47;0.70;;;0.70;;
7154;SDS011;3619;53.784;10.440;2023-04-29T05:00:14;0.93;;;0.93;;
7154;SDS011;3619;53.784;10.440;2023-04-29T05:02:41;0.83;;;0.83;;
7154;SDS011;3619;53.784;10.440;2023-04-29T05:05:09;0.80;;;0.80;;
7154;SDS011;3619;53.784;10.440;2023-04-29T05:07:36;0.87;;;0.87;;
7154;SDS011;3619;53.784;10.440;2023-04-29T05:10:04;1.00;;;1.00;;
7154;SDS011;3619;53.784;10.440;2023-04-29T05:12:32;0.80;;;0.80;;
7154;SDS011;3619;53.784;10.440;2023-04-29T05:14:59;0.70;;;0.70;;
7154;SDS011;3619;53.784;10.440;2023-04-29T05:17:26;0.80;;;0.80;;
7154;SDS011;3619;53.784;10.440;2023-04-29T05:19:53;0.70;;;0.70;;
7154;SDS011;3619;53.784;10.440;2023-04-29T05:22:21;0.70;;;0.70;;
7154;SDS011;3619;53.784;10.440;2023-04-29T05:24:48;0.80;;;0.80;;
7154;SDS011;3619;53.784;10.440;2023-04-29T05:27:16;0.90;;;0.90;;
7154;SDS011;3619;53.784;10.440;2023-04-29T05:29:44;0.80;;;0.80;;
7154;SDS011;3619;53.784;10.440;2023-04-29T05:32:11;0.93;;;0.93;;
7154;SDS011;3619;53.784;10.440;2023-04-29T05:34:38;1.00;;;1.00;;
7154;SDS011;3619;53.784;10.440;2023-04-29T05:37:05;1.00;;;1.00;;
7154;SDS011;3619;53.784;10.440;2023-04-29T05:39:33;1.10;;;1.10;;
7154;SDS011;3619;53.784;10.440;2023-04-29T05:42:00;1.20;;;1.20;;
7154;SDS011;3619;53.784;10.440;2023-04-29T05:44:27;1.07;;;1.07;;
7154;SDS011;3619;53.784;10.440;2023-04-29T05:46:54;1.40;;;1.40;;
7154;SDS011;3619;53.784;10.440;2023-04-29T05:49:21;1.37;;;1.37;;
7154;SDS011;3619;53.784;10.440;2023-04-29T05:51:48;1.40;;;1.40;;
7154;SDS011;3619;53.784;10.440;2023-04-29T05:54:14;1.37;;;1.37;;
7154;SDS011;3619;53.784;10.440;2023-04-29T05:56:42;1.50;;;1.50;;
7154;SDS011;3619;53.784;10.440;2023-04-29T05:59:09;1.60;;;1.60;;
7154;SDS011;3619;53.784;10.440;2023-04-29T06:01:36;1.30;;;1.30;;
7154;SDS011;3619;53.784;10.440;2023-04-29T06:04:03;1.60;;;1.60;;
7154;SDS011;3619;53.784;10.440;2023-04-29T06:06:30;1.60;;;1.60;;
7154;SDS011;3619;53.784;10.440;2023-04-29T06:08:58;1.87;;;1.80;;
7154;SDS011;3619;53.784;10.440;2023-04-29T06:11:26;2.00;;;1.90;;
7154;SDS011;3619;53.784;10.440;2023-04-29T06:13:54;2.73;;;2.63;;
7154;SDS011;3619;53.784;10.440;2023-04-29T06:16:21;2.97;;;2.87;;
7154;SDS011;3619;53.784;10.440;2023-04-29T06:18:48;2.87;;;2.77;;
7154;SDS011;3619;53.784;10.440;2023-04-29T06:21:15;3.60;;;3.50;;
7154;SDS011;3619;53.784;10.440;2023-04-29T06:23:41;4.50;;;4.33;;
7154;SDS011;3619;53.784;10.440;2023-04-29T06:26:08;4.63;;;4.43;;
7154;SDS011;3619;53.784;10.440;2023-04-29T06:28:35;4.23;;;4.13;;
7154;SDS011;3619;53.784;10.440;2023-04-29T06:31:03;4.80;;;4.60;;
7154;SDS011;3619;53.784;10.440;2023-04-29T06:33:30;4.77;;;4.57;;
7154;SDS011;3619;53.784;10.440;2023-04-29T06:35:58;4.30;;;4.20;;
7154;SDS011;3619;53.784;10.440;2023-04-29T06:38:24;5.50;;;5.30;;
7154;SDS011;3619;53.784;10.440;2023-04-29T06:40:52;5.43;;;5.23;;
7154;SDS011;3619;53.784;10.440;2023-04-29T06:43:19;4.47;;;4.30;;
7154;SDS011;3619;53.784;10.440;2023-04-29T06:45:46;4.40;;;4.27;;
7154;SDS011;3619;53.784;10.440;2023-04-29T06:48:14;4.63;;;4.43;;
7154;SDS011;3619;53.784;10.440;2023-04-29T06:50:48;4.40;;;4.27;;
7154;SDS011;3619;53.784;10.440;2023-04-29T06:53:15;5.37;;;5.17;;
7154;SDS011;3619;53.784;10.440;2023-04-29T06:55:42;4.33;;;4.23;;
7154;SDS011;3619;53.784;10.440;2023-04-29T06:58:10;4.27;;;4.17;;
7154;SDS011;3619;53.784;10.440;2023-04-29T07:00:37;4.13;;;4.03;;
7154;SDS011;3619;53.784;10.440;2023-04-29T07:03:04;5.03;;;4.83;;
7154;SDS011;3619;53.784;10.440;2023-04-29T07:05:32;4.63;;;4.43;;
7154;SDS011;3619;53.784;10.440;2023-04-29T07:07:59;5.17;;;4.97;;
7154;SDS011;3619;53.784;10.440;2023-04-29T07:10:25;4.27;;;4.17;;
7154;SDS011;3619;53.784;10.440;2023-04-29T07:12:53;4.13;;;4.03;;
7154;SDS011;3619;53.784;10.440;2023-04-29T07:15:20;4.10;;;4.00;;
7154;SDS011;3619;53.784;10.440;2023-04-29T07:17:46;3.83;;;3.73;;
7154;SDS011;3619;53.784;10.440;2023-04-29T07:20:13;3.40;;;3.30;;
7154;SDS011;3619;53.784;10.440;2023-04-29T07:22:42;3.70;;;3.60;;
7154;SDS011;3619;53.784;10.440;2023-04-29T07:25:08;3.77;;;3.67;;
7154;SDS011;3619;53.784;10.440;2023-04-29T07:27:35;3.40;;;3.30;;
7154;SDS011;3619;53.784;10.440;2023-04-29T07:30:03;3.27;;;3.17;;
7154;SDS011;3619;53.784;10.440;2023-04-29T07:32:30;3.30;;;3.20;;
7154;SDS011;3619;53.784;10.440;2023-04-29T07:34:58;2.90;;;2.80;;
7154;SDS011;3619;53.784;10.440;2023-04-29T07:37:25;2.97;;;2.87;;
7154;SDS011;3619;53.784;10.440;2023-04-29T07:39:53;3.20;;;3.10;;
7154;SDS011;3619;53.784;10.440;2023-04-29T07:42:29;2.63;;;2.53;;
7154;SDS011;3619;53.784;10.440;2023-04-29T07:44:58;2.10;;;2.00;;
7154;SDS011;3619;53.784;10.440;2023-04-29T07:47:25;2.43;;;2.33;;
7154;SDS011;3619;53.784;10.440;2023-04-29T07:49:53;3.20;;;3.10;;
7154;SDS011;3619;53.784;10.440;2023-04-29T07:52:21;1.77;;;1.77;;
7154;SDS011;3619;53.784;10.440;2023-04-29T07:54:48;2.07;;;1.97;;
7154;SDS011;3619;53.784;10.440;2023-04-29T07:57:16;1.70;;;1.70;;
7154;SDS011;3619;53.784;10.440;2023-04-29T07:59:45;1.60;;;1.60;;
7154;SDS011;3619;53.784;10.440;2023-04-29T08:02:12;1.50;;;1.50;;
7154;SDS011;3619;53.784;10.440;2023-04-29T08:04:41;2.40;;;2.30;;
7154;SDS011;3619;53.784;10.440;2023-04-29T08:07:08;1.70;;;1.70;;
7154;SDS011;3619;53.784;10.440;2023-04-29T08:09:35;2.00;;;1.90;;
7154;SDS011;3619;53.784;10.440;2023-04-29T08:12:01;1.60;;;1.60;;
7154;SDS011;3619;53.784;10.440;2023-04-29T08:14:30;1.63;;;1.63;;
7154;SDS011;3619;53.784;10.440;2023-04-29T08:16:56;1.53;;;1.53;;
7154;SDS011;3619;53.784;10.440;2023-04-29T08:19:23;1.80;;;1.80;;
7154;SDS011;3619;53.784;10.440;2023-04-29T08:21:50;1.70;;;1.70;;
7154;SDS011;3619;53.784;10.440;2023-04-29T08:24:20;1.57;;;1.57;;
7154;SDS011;3619;53.784;10.440;2023-04-29T08:26:50;1.60;;;1.60;;
7154;SDS011;3619;53.784;10.440;2023-04-29T08:29:17;1.77;;;1.77;;
7154;SDS011;3619;53.784;10.440;2023-04-29T08:31:46;1.63;;;1.63;;
7154;SDS011;3619;53.784;10.440;2023-04-29T08:34:12;1.87;;;1.80;;
7154;SDS011;3619;53.784;10.440;2023-04-29T08:36:39;1.50;;;1.50;;
7154;SDS011;3619;53.784;10.440;2023-04-29T08:39:06;1.70;;;1.70;;
7154;SDS011;3619;53.784;10.440;2023-04-29T08:41:33;1.70;;;1.70;;
7154;SDS011;3619;53.784;10.440;2023-04-29T08:44:01;2.10;;;2.00;;
7154;SDS011;3619;53.784;10.440;2023-04-29T08:46:28;1.73;;;1.73;;
7154;SDS011;3619;53.784;10.440;2023-04-29T08:48:57;2.10;;;2.00;;
7154;SDS011;3619;53.784;10.440;2023-04-29T08:51:24;1.97;;;1.87;;
7154;SDS011;3619;53.784;10.440;2023-04-29T08:53:52;1.73;;;1.73;;
7154;SDS011;3619;53.784;10.440;2023-04-29T08:56:21;1.73;;;1.73;;
7154;SDS011;3619;53.784;10.440;2023-04-29T08:58:48;1.60;;;1.60;;
7154;SDS011;3619;53.784;10.440;2023-04-29T09:01:18;1.57;;;1.57;;
7154;SDS011;3619;53.784;10.440;2023-04-29T09:03:48;1.50;;;1.50;;
7154;SDS011;3619;53.784;10.440;2023-04-29T09:06:20;1.70;;;1.70;;
7154;SDS011;3619;53.784;10.440;2023-04-29T09:08:47;1.87;;;1.83;;
7154;SDS011;3619;53.784;10.440;2023-04-29T09:11:14;1.60;;;1.60;;
7154;SDS011;3619;53.784;10.440;2023-04-29T09:13:41;1.87;;;1.87;;
7154;SDS011;3619;53.784;10.440;2023-04-29T09:16:11;2.00;;;1.90;;
7154;SDS011;3619;53.784;10.440;2023-04-29T09:18:44;1.70;;;1.70;;
7154;SDS011;3619;53.784;10.440;2023-04-29T09:21:16;1.47;;;1.47;;
7154;SDS011;3619;53.784;10.440;2023-04-29T09:23:45;1.70;;;1.70;;
7154;SDS011;3619;53.784;10.440;2023-04-29T09:26:13;1.47;;;1.47;;
7154;SDS011;3619;53.784;10.440;2023-04-29T09:28:42;1.50;;;1.50;;
7154;SDS011;3619;53.784;10.440;2023-04-29T09:31:11;1.57;;;1.57;;
7154;SDS011;3619;53.784;10.440;2023-04-29T09:33:48;1.40;;;1.40;;
7154;SDS011;3619;53.784;10.440;2023-04-29T09:39:02;1.33;;;1.33;;
7154;SDS011;3619;53.784;10.440;2023-04-29T09:41:35;1.70;;;1.70;;
7154;SDS011;3619;53.784;10.440;2023-04-29T09:44:03;1.33;;;1.33;;
7154;SDS011;3619;53.784;10.440;2023-04-29T09:46:31;1.60;;;1.60;;
7154;SDS011;3619;53.784;10.440;2023-04-29T09:48:58;1.50;;;1.50;;
7154;SDS011;3619;53.784;10.440;2023-04-29T09:51:26;1.60;;;1.60;;
7154;SDS011;3619;53.784;10.440;2023-04-29T09:53:52;1.40;;;1.40;;
7154;SDS011;3619;53.784;10.440;2023-04-29T09:56:21;1.80;;;1.80;;
7154;SDS011;3619;53.784;10.440;2023-04-29T09:58:47;2.30;;;2.20;;
7154;SDS011;3619;53.784;10.440;2023-04-29T10:01:14;1.50;;;1.50;;
7154;SDS011;3619;53.784;10.440;2023-04-29T10:03:44;1.47;;;1.47;;
7154;SDS011;3619;53.784;10.440;2023-04-29T10:06:17;1.60;;;1.60;;
7154;SDS011;3619;53.784;10.440;2023-04-29T10:08:44;1.60;;;1.60;;
7154;SDS011;3619;53.784;10.440;2023-04-29T10:11:16;1.23;;;1.23;;
7154;SDS011;3619;53.784;10.440;2023-04-29T10:13:44;1.30;;;1.30;;
7154;SDS011;3619;53.784;10.440;2023-04-29T10:16:18;1.50;;;1.50;;
7154;SDS011;3619;53.784;10.440;2023-04-29T10:19:03;1.50;;;1.50;;
7154;SDS011;3619;53.784;10.440;2023-04-29T10:21:34;1.40;;;1.40;;
7154;SDS011;3619;53.784;10.440;2023-04-29T10:24:02;1.60;;;1.60;;
7154;SDS011;3619;53.784;10.440;2023-04-29T10:26:30;1.50;;;1.50;;
7154;SDS011;3619;53.784;10.440;2023-04-29T10:31:59;1.30;;;1.30;;
7154;SDS011;3619;53.784;10.440;2023-04-29T10:34:29;1.30;;;1.30;;
7154;SDS011;3619;53.784;10.440;2023-04-29T10:36:57;1.13;;;1.13;;
7154;SDS011;3619;53.784;10.440;2023-04-29T10:39:26;1.30;;;1.30;;
7154;SDS011;3619;53.784;10.440;2023-04-29T10:41:58;1.23;;;1.23;;
7154;SDS011;3619;53.784;10.440;2023-04-29T10:44:28;1.20;;;1.20;;
7154;SDS011;3619;53.784;10.440;2023-04-29T10:50:00;1.27;;;1.27;;
7154;SDS011;3619;53.784;10.440;2023-04-29T10:52:29;1.03;;;1.03;;
7154;SDS011;3619;53.784;10.440;2023-04-29T10:55:00;1.30;;;1.30;;
7154;SDS011;3619;53.784;10.440;2023-04-29T10:57:27;0.97;;;0.97;;
7154;SDS011;3619;53.784;10.440;2023-04-29T10:59:56;1.00;;;1.00;;
7154;SDS011;3619;53.784;10.440;2023-04-29T11:02:23;0.90;;;0.90;;
7154;SDS011;3619;53.784;10.440;2023-04-29T11:07:39;0.90;;;0.90;;
7154;SDS011;3619;53.784;10.440;2023-04-29T11:10:08;1.20;;;1.20;;
7154;SDS011;3619;53.784;10.440;2023-04-29T11:12:35;0.80;;;0.80;;
7154;SDS011;3619;53.784;10.440;2023-04-29T11:15:03;1.10;;;1.10;;
7154;SDS011;3619;53.784;10.440;2023-04-29T11:17:35;0.90;;;0.90;;
7154;SDS011;3619;53.784;10.440;2023-04-29T11:20:04;0.90;;;0.90;;
7154;SDS011;3619;53.784;10.440;2023-04-29T11:22:35;0.97;;;0.97;;
7154;SDS011;3619;53.784;10.440;2023-04-29T11:25:02;1.00;;;1.00;;
7154;SDS011;3619;53.784;10.440;2023-04-29T11:27:31;1.17;;;1.17;;
7154;SDS011;3619;53.784;10.440;2023-04-29T11:30:01;1.00;;;1.00;;
7154;SDS011;3619;53.784;10.440;2023-04-29T11:32:31;1.10;;;1.10;;
7154;SDS011;3619;53.784;10.440;2023-04-29T11:35:08;1.00;;;1.00;;
7154;SDS011;3619;53.784;10.440;2023-04-29T11:37:36;0.90;;;0.90;;
7154;SDS011;3619;53.784;10.440;2023-04-29T11:40:04;1.03;;;1.03;;
7154;SDS011;3619;53.784;10.440;2023-04-29T11:42:33;0.80;;;0.80;;
7154;SDS011;3619;53.784;10.440;2023-04-29T11:45:00;0.97;;;0.97;;
7154;SDS011;3619;53.784;10.440;2023-04-29T11:47:27;0.83;;;0.83;;
7154;SDS011;3619;53.784;10.440;2023-04-29T11:50:02;0.90;;;0.90;;
7154;SDS011;3619;53.784;10.440;2023-04-29T11:52:29;1.07;;;1.07;;
7154;SDS011;3619;53.784;10.440;2023-04-29T11:54:58;1.00;;;1.00;;
7154;SDS011;3619;53.784;10.440;2023-04-29T11:57:25;1.00;;;1.00;;
7154;SDS011;3619;53.784;10.440;2023-04-29T11:59:56;1.20;;;1.20;;
7154;SDS011;3619;53.784;10.440;2023-04-29T12:02:27;1.00;;;1.00;;
7154;SDS011;3619;53.784;10.440;2023-04-29T12:04:58;0.90;;;0.90;;
7154;SDS011;3619;53.784;10.440;2023-04-29T12:07:27;1.00;;;1.00;;
7154;SDS011;3619;53.784;10.440;2023-04-29T12:09:56;1.10;;;1.10;;
7154;SDS011;3619;53.784;10.440;2023-04-29T12:12:23;1.00;;;1.00;;
7154;SDS011;3619;53.784;10.440;2023-04-29T12:14:51;1.00;;;1.00;;
7154;SDS011;3619;53.784;10.440;2023-04-29T12:17:19;1.00;;;1.00;;
7154;SDS011;3619;53.784;10.440;2023-04-29T12:19:46;1.10;;;1.10;;
7154;SDS011;3619;53.784;10.440;2023-04-29T12:22:13;1.10;;;1.10;;
7154;SDS011;3619;53.784;10.440;2023-04-29T12:24:41;0.70;;;0.70;;
7154;SDS011;3619;53.784;10.440;2023-04-29T12:27:09;1.00;;;1.00;;
7154;SDS011;3619;53.784;10.440;2023-04-29T12:29:36;1.00;;;1.00;;
7154;SDS011;3619;53.784;10.440;2023-04-29T12:32:04;0.90;;;0.90;;
7154;SDS011;3619;53.784;10.440;2023-04-29T12:34:32;0.90;;;0.90;;
7154;SDS011;3619;53.784;10.440;2023-04-29T12:36:59;1.03;;;1.03;;
7154;SDS011;3619;53.784;10.440;2023-04-29T12:39:27;1.00;;;1.00;;
7154;SDS011;3619;53.784;10.440;2023-04-29T12:41:56;1.13;;;1.13;;
7154;SDS011;3619;53.784;10.440;2023-04-29T12:44:33;1.00;;;1.00;;
7154;SDS011;3619;53.784;10.440;2023-04-29T12:47:05;1.53;;;1.43;;
7154;SDS011;3619;53.784;10.440;2023-04-29T12:49:33;1.00;;;1.00;;
7154;SDS011;3619;53.784;10.440;2023-04-29T12:52:00;0.90;;;0.90;;
7154;SDS011;3619;53.784;10.440;2023-04-29T12:54:28;0.90;;;0.90;;
7154;SDS011;3619;53.784;10.440;2023-04-29T12:56:56;1.00;;;1.00;;
7154;SDS011;3619;53.784;10.440;2023-04-29T12:59:24;0.80;;;0.80;;
7154;SDS011;3619;53.784;10.440;2023-04-29T13:01:50;0.80;;;0.80;;
7154;SDS011;3619;53.784;10.440;2023-04-29T13:04:17;1.00;;;1.00;;
7154;SDS011;3619;53.784;10.440;2023-04-29T13:06:46;1.23;;;1.23;;
7154;SDS011;3619;53.784;10.440;2023-04-29T13:09:13;1.17;;;1.17;;
7154;SDS011;3619;53.784;10.440;2023-04-29T13:11:41;1.03;;;1.03;;
7154;SDS011;3619;53.784;10.440;2023-04-29T13:14:13;1.00;;;1.00;;
7154;SDS011;3619;53.784;10.440;2023-04-29T13:16:40;1.30;;;1.30;;
7154;SDS011;3619;53.784;10.440;2023-04-29T13:19:07;1.00;;;1.00;;
7154;SDS011;3619;53.784;10.440;2023-04-29T13:21:34;1.10;;;1.10;;
7154;SDS011;3619;53.784;10.440;2023-04-29T13:24:00;1.20;;;1.20;;
7154;SDS011;3619;53.784;10.440;2023-04-29T13:26:27;1.07;;;1.07;;
7154;SDS011;3619;53.784;10.440;2023-04-29T13:28:54;1.20;;;1.20;;
7154;SDS011;3619;53.784;10.440;2023-04-29T13:31:22;1.00;;;1.00;;
7154;SDS011;3619;53.784;10.440;2023-04-29T13:33:49;1.30;;;1.30;;
7154;SDS011;3619;53.784;10.440;2023-04-29T13:36:16;2.60;;;2.50;;
7154;SDS011;3619;53.784;10.440;2023-04-29T13:38:43;1.73;;;1.63;;
7154;SDS011;3619;53.784;10.440;2023-04-29T13:41:10;1.10;;;1.10;;
7154;SDS011;3619;53.784;10.440;2023-04-29T13:43:37;1.20;;;1.20;;
7154;SDS011;3619;53.784;10.440;2023-04-29T13:46:04;1.10;;;1.10;;
7154;SDS011;3619;53.784;10.440;2023-04-29T13:48:33;1.40;;;1.40;;
7154;SDS011;3619;53.784;10.440;2023-04-29T13:51:00;1.20;;;1.20;;
7154;SDS011;3619;53.784;10.440;2023-04-29T13:53:26;1.20;;;1.20;;
7154;SDS011;3619;53.784;10.440;2023-04-29T13:55:53;1.20;;;1.20;;
7154;SDS011;3619;53.784;10.440;2023-04-29T13:58:20;1.23;;;1.23;;
7154;SDS011;3619;53.784;10.440;2023-04-29T14:00:47;1.03;;;1.03;;
7154;SDS011;3619;53.784;10.440;2023-04-29T14:03:14;1.30;;;1.30;;
7154;SDS011;3619;53.784;10.440;2023-04-29T14:05:43;1.30;;;1.30;;
7154;SDS011;3619;53.784;10.440;2023-04-29T14:08:10;1.30;;;1.30;;
7154;SDS011;3619;53.784;10.440;2023-04-29T14:10:38;1.83;;;1.73;;
7154;SDS011;3619;53.784;10.440;2023-04-29T14:13:05;1.20;;;1.20;;
7154;SDS011;3619;53.784;10.440;2023-04-29T14:15:32;1.20;;;1.20;;
7154;SDS011;3619;53.784;10.440;2023-04-29T14:17:58;1.40;;;1.40;;
7154;SDS011;3619;53.784;10.440;2023-04-29T14:20:25;1.23;;;1.23;;
7154;SDS011;3619;53.784;10.440;2023-04-29T14:22:54;1.43;;;1.43;;
7154;SDS011;3619;53.784;10.440;2023-04-29T14:25:20;1.00;;;1.00;;
7154;SDS011;3619;53.784;10.440;2023-04-29T14:27:47;1.10;;;1.10;;
7154;SDS011;3619;53.784;10.440;2023-04-29T14:30:14;1.13;;;1.13;;
7154;SDS011;3619;53.784;10.440;2023-04-29T14:32:41;1.10;;;1.10;;
7154;SDS011;3619;53.784;10.440;2023-04-29T14:35:08;1.20;;;1.20;;
7154;SDS011;3619;53.784;10.440;2023-04-29T14:37:35;1.10;;;1.10;;
7154;SDS011;3619;53.784;10.440;2023-04-29T14:40:03;1.00;;;1.00;;
7154;SDS011;3619;53.784;10.440;2023-04-29T14:42:31;1.00;;;1.00;;
7154;SDS011;3619;53.784;10.440;2023-04-29T14:44:58;1.13;;;1.13;;
7154;SDS011;3619;53.784;10.440;2023-04-29T14:47:25;1.00;;;1.00;;
7154;SDS011;3619;53.784;10.440;2023-04-29T14:49:52;1.10;;;1.10;;
7154;SDS011;3619;53.784;10.440;2023-04-29T14:52:20;1.00;;;1.00;;
7154;SDS011;3619;53.784;10.440;2023-04-29T14:54:47;1.10;;;1.10;;
7154;SDS011;3619;53.784;10.440;2023-04-29T14:57:15;0.93;;;0.93;;
7154;SDS011;3619;53.784;10.440;2023-04-29T14:59:42;0.90;;;0.90;;
7154;SDS011;3619;53.784;10.440;2023-04-29T15:02:16;1.00;;;1.00;;
7154;SDS011;3619;53.784;10.440;2023-04-29T15:04:45;1.10;;;1.10;;
7154;SDS011;3619;53.784;10.440;2023-04-29T15:07:12;1.10;;;1.10;;
7154;SDS011;3619;53.784;10.440;2023-04-29T15:09:39;1.20;;;1.20;;
7154;SDS011;3619;53.784;10.440;2023-04-29T15:12:06;1.07;;;1.07;;
7154;SDS011;3619;53.784;10.440;2023-04-29T15:14:39;1.30;;;1.30;;
7154;SDS011;3619;53.784;10.440;2023-04-29T15:17:05;1.10;;;1.10;;
7154;SDS011;3619;53.784;10.440;2023-04-29T15:19:33;1.10;;;1.10;;